sensor_id;sensor_type;location;lat;lon;timestamp;P1;durP1;ratioP1;P2;durP2;ratioP2
72235;SDS011;60146;52.498;13.462;2023-01-31T00:00:00;18.13;;;2.00;;
72235;SDS011;60146;52.498;13.462;2023-01-31T00:02:26;12.17;;;1.67;;
72235;SDS011;60146;52.498;13.462;2023-01-31T00:04:51;17.10;;;1.50;;
72235;SDS011;60146;52.498;13.462;2023-01-31T00:07:16;4.90;;;1.20;;
72235;SDS011;60146;52.498;13.462;2023-01-31T00:09:41;13.80;;;2.07;;
72235;SDS011;60146;52.498;13.462;2023-01-31T00:12:06;14.00;;;1.70;;
72235;SDS011;60146;52.498;13.462;2023-01-31T00:14:32;6.40;;;1.30;;
72235;SDS011;60146;52.498;13.462;2023-01-31T00:16:57;12.97;;;1.77;;
72235;SDS011;60146;52.498;13.462;2023-01-31T00:19:22;6.57;;;1.60;;
72235;SDS011;60146;52.498;13.462;2023-01-31T00:21:47;9.93;;;1.73;;
72235;SDS011;60146;52.498;13.462;2023-01-31T00:24:13;13.80;;;1.70;;
72235;SDS011;60146;52.498;13.462;2023-01-31T00:26:38;14.83;;;1.50;;
72235;SDS011;60146;52.498;13.462;2023-01-31T00:29:04;14.30;;;2.03;;
72235;SDS011;60146;52.498;13.462;2023-01-31T00:31:29;13.40;;;1.60;;
72235;SDS011;60146;52.498;13.462;2023-01-31T00:33:55;12.83;;;1.67;;
72235;SDS011;60146;52.498;13.462;2023-01-31T00:36:22;10.83;;;1.97;;
72235;SDS011;60146;52.498;13.462;2023-01-31T00:38:48;11.10;;;1.50;;
72235;SDS011;60146;52.498;13.462;2023-01-31T00:41:13;6.80;;;1.30;;
72235;SDS011;60146;52.498;13.462;2023-01-31T00:43:38;7.10;;;1.10;;
72235;SDS011;60146;52.498;13.462;2023-01-31T00:46:03;9.87;;;1.47;;
72235;SDS011;60146;52.498;13.462;2023-01-31T00:48:29;5.50;;;1.40;;
72235;SDS011;60146;52.498;13.462;2023-01-31T00:50:54;8.90;;;1.50;;
72235;SDS011;60146;52.498;13.462;2023-01-31T00:53:19;10.33;;;1.50;;
72235;SDS011;60146;52.498;13.462;2023-01-31T00:55:51;17.20;;;2.23;;
72235;SDS011;60146;52.498;13.462;2023-01-31T00:58:16;7.97;;;1.17;;
72235;SDS011;60146;52.498;13.462;2023-01-31T01:00:41;8.60;;;1.30;;
72235;SDS011;60146;52.498;13.462;2023-01-31T01:03:06;14.53;;;1.77;;
72235;SDS011;60146;52.498;13.462;2023-01-31T01:05:31;11.37;;;1.40;;
72235;SDS011;60146;52.498;13.462;2023-01-31T01:07:57;10.40;;;1.50;;
72235;SDS011;60146;52.498;13.462;2023-01-31T01:10:22;8.80;;;1.20;;
72235;SDS011;60146;52.498;13.462;2023-01-31T01:12:47;10.13;;;1.70;;
72235;SDS011;60146;52.498;13.462;2023-01-31T01:15:12;9.27;;;1.23;;
72235;SDS011;60146;52.498;13.462;2023-01-31T01:17:38;10.90;;;1.60;;
72235;SDS011;60146;52.498;13.462;2023-01-31T01:20:03;9.33;;;1.23;;
72235;SDS011;60146;52.498;13.462;2023-01-31T01:22:29;12.03;;;1.33;;
72235;SDS011;60146;52.498;13.462;2023-01-31T01:24:54;12.43;;;1.33;;
72235;SDS011;60146;52.498;13.462;2023-01-31T01:27:19;8.63;;;1.30;;
72235;SDS011;60146;52.498;13.462;2023-01-31T01:29:44;12.23;;;1.77;;
72235;SDS011;60146;52.498;13.462;2023-01-31T01:32:10;5.30;;;1.13;;
72235;SDS011;60146;52.498;13.462;2023-01-31T01:34:35;6.73;;;1.37;;
72235;SDS011;60146;52.498;13.462;2023-01-31T01:37:01;10.87;;;1.60;;
72235;SDS011;60146;52.498;13.462;2023-01-31T01:39:36;14.10;;;1.70;;
72235;SDS011;60146;52.498;13.462;2023-01-31T01:42:01;6.53;;;1.20;;
72235;SDS011;60146;52.498;13.462;2023-01-31T01:50:05;5.40;;;1.13;;
72235;SDS011;60146;52.498;13.462;2023-01-31T01:52:32;6.43;;;1.27;;
72235;SDS011;60146;52.498;13.462;2023-01-31T01:55:00;9.00;;;1.07;;
72235;SDS011;60146;52.498;13.462;2023-01-31T01:57:32;5.53;;;1.00;;
72235;SDS011;60146;52.498;13.462;2023-01-31T02:00:11;15.43;;;1.27;;
72235;SDS011;60146;52.498;13.462;2023-01-31T02:02:38;11.30;;;1.67;;
72235;SDS011;60146;52.498;13.462;2023-01-31T02:05:04;15.60;;;1.50;;
72235;SDS011;60146;52.498;13.462;2023-01-31T02:07:30;10.67;;;1.30;;
72235;SDS011;60146;52.498;13.462;2023-01-31T02:09:59;9.40;;;1.53;;
72235;SDS011;60146;52.498;13.462;2023-01-31T02:12:25;11.68;;;1.38;;
72235;SDS011;60146;52.498;13.462;2023-01-31T02:14:51;7.57;;;1.03;;
72235;SDS011;60146;52.498;13.462;2023-01-31T02:17:17;8.17;;;1.10;;
72235;SDS011;60146;52.498;13.462;2023-01-31T02:19:49;7.77;;;1.33;;
72235;SDS011;60146;52.498;13.462;2023-01-31T02:22:23;9.53;;;1.20;;
72235;SDS011;60146;52.498;13.462;2023-01-31T02:30:16;6.13;;;1.15;;
72235;SDS011;60146;52.498;13.462;2023-01-31T02:40:08;6.87;;;1.50;;
72235;SDS011;60146;52.498;13.462;2023-01-31T02:46:04;10.57;;;1.67;;
72235;SDS011;60146;52.498;13.462;2023-01-31T02:50:37;8.87;;;1.40;;
72235;SDS011;60146;52.498;13.462;2023-01-31T02:53:10;9.70;;;1.40;;
72235;SDS011;60146;52.498;13.462;2023-01-31T02:55:48;11.57;;;1.20;;
72235;SDS011;60146;52.498;13.462;2023-01-31T02:58:35;11.07;;;1.40;;
72235;SDS011;60146;52.498;13.462;2023-01-31T03:01:01;8.27;;;1.40;;
72235;SDS011;60146;52.498;13.462;2023-01-31T03:03:28;8.50;;;1.20;;
72235;SDS011;60146;52.498;13.462;2023-01-31T03:06:11;8.30;;;1.20;;
72235;SDS011;60146;52.498;13.462;2023-01-31T03:11:24;7.67;;;0.87;;
72235;SDS011;60146;52.498;13.462;2023-01-31T03:14:12;11.63;;;1.10;;
72235;SDS011;60146;52.498;13.462;2023-01-31T03:16:43;8.43;;;1.00;;
72235;SDS011;60146;52.498;13.462;2023-01-31T03:22:10;8.23;;;1.00;;
72235;SDS011;60146;52.498;13.462;2023-01-31T03:24:40;5.78;;;1.02;;
72235;SDS011;60146;52.498;13.462;2023-01-31T03:27:06;10.17;;;1.80;;
72235;SDS011;60146;52.498;13.462;2023-01-31T03:29:33;10.80;;;1.03;;
72235;SDS011;60146;52.498;13.462;2023-01-31T03:32:03;10.87;;;1.20;;
72235;SDS011;60146;52.498;13.462;2023-01-31T03:34:30;7.80;;;1.03;;
72235;SDS011;60146;52.498;13.462;2023-01-31T03:39:41;8.03;;;1.20;;
72235;SDS011;60146;52.498;13.462;2023-01-31T03:47:19;9.43;;;1.47;;
72235;SDS011;60146;52.498;13.462;2023-01-31T03:49:46;7.17;;;1.13;;
72235;SDS011;60146;52.498;13.462;2023-01-31T03:52:14;8.37;;;1.53;;
72235;SDS011;60146;52.498;13.462;2023-01-31T03:54:44;8.50;;;1.23;;
72235;SDS011;60146;52.498;13.462;2023-01-31T03:57:19;12.87;;;1.07;;
72235;SDS011;60146;52.498;13.462;2023-01-31T03:59:46;6.77;;;0.97;;
72235;SDS011;60146;52.498;13.462;2023-01-31T04:02:17;10.67;;;1.07;;
72235;SDS011;60146;52.498;13.462;2023-01-31T04:04:44;6.53;;;1.07;;
72235;SDS011;60146;52.498;13.462;2023-01-31T04:07:11;12.77;;;1.40;;
72235;SDS011;60146;52.498;13.462;2023-01-31T04:09:37;9.27;;;0.97;;
72235;SDS011;60146;52.498;13.462;2023-01-31T04:12:03;12.00;;;1.10;;
72235;SDS011;60146;52.498;13.462;2023-01-31T04:14:28;7.20;;;0.87;;
72235;SDS011;60146;52.498;13.462;2023-01-31T04:16:53;11.97;;;1.47;;
72235;SDS011;60146;52.498;13.462;2023-01-31T04:19:19;6.40;;;1.30;;
72235;SDS011;60146;52.498;13.462;2023-01-31T04:21:44;6.30;;;1.17;;
72235;SDS011;60146;52.498;13.462;2023-01-31T04:24:09;9.50;;;1.13;;
72235;SDS011;60146;52.498;13.462;2023-01-31T04:26:35;10.37;;;1.40;;
72235;SDS011;60146;52.498;13.462;2023-01-31T04:29:00;8.77;;;1.70;;
72235;SDS011;60146;52.498;13.462;2023-01-31T04:31:26;9.00;;;1.10;;
72235;SDS011;60146;52.498;13.462;2023-01-31T04:33:54;10.83;;;1.83;;
72235;SDS011;60146;52.498;13.462;2023-01-31T04:36:23;10.13;;;1.57;;
72235;SDS011;60146;52.498;13.462;2023-01-31T04:38:49;10.00;;;1.50;;
72235;SDS011;60146;52.498;13.462;2023-01-31T04:41:14;11.03;;;1.40;;
72235;SDS011;60146;52.498;13.462;2023-01-31T04:43:39;7.40;;;1.63;;
72235;SDS011;60146;52.498;13.462;2023-01-31T04:46:04;7.57;;;1.30;;
72235;SDS011;60146;52.498;13.462;2023-01-31T04:48:29;13.87;;;1.70;;
72235;SDS011;60146;52.498;13.462;2023-01-31T04:50:55;9.57;;;1.10;;
72235;SDS011;60146;52.498;13.462;2023-01-31T04:53:20;8.80;;;1.47;;
72235;SDS011;60146;52.498;13.462;2023-01-31T04:55:46;10.20;;;1.10;;
72235;SDS011;60146;52.498;13.462;2023-01-31T04:58:11;7.73;;;1.50;;
72235;SDS011;60146;52.498;13.462;2023-01-31T05:00:36;2.80;;;1.03;;
72235;SDS011;60146;52.498;13.462;2023-01-31T05:03:01;11.17;;;1.23;;
72235;SDS011;60146;52.498;13.462;2023-01-31T05:05:27;12.53;;;1.23;;
72235;SDS011;60146;52.498;13.462;2023-01-31T05:07:52;8.83;;;1.13;;
72235;SDS011;60146;52.498;13.462;2023-01-31T05:10:17;8.17;;;1.20;;
72235;SDS011;60146;52.498;13.462;2023-01-31T05:12:42;5.67;;;1.30;;
72235;SDS011;60146;52.498;13.462;2023-01-31T05:15:08;6.77;;;1.10;;
72235;SDS011;60146;52.498;13.462;2023-01-31T05:17:35;7.77;;;1.47;;
72235;SDS011;60146;52.498;13.462;2023-01-31T05:20:00;10.70;;;1.57;;
72235;SDS011;60146;52.498;13.462;2023-01-31T05:22:25;14.63;;;1.43;;
72235;SDS011;60146;52.498;13.462;2023-01-31T05:24:50;4.60;;;0.97;;
72235;SDS011;60146;52.498;13.462;2023-01-31T05:27:16;10.87;;;1.60;;
72235;SDS011;60146;52.498;13.462;2023-01-31T05:29:42;9.37;;;1.30;;
72235;SDS011;60146;52.498;13.462;2023-01-31T05:32:07;11.63;;;1.20;;
72235;SDS011;60146;52.498;13.462;2023-01-31T05:34:32;4.07;;;1.13;;
72235;SDS011;60146;52.498;13.462;2023-01-31T05:36:58;9.30;;;1.10;;
72235;SDS011;60146;52.498;13.462;2023-01-31T05:39:24;12.67;;;1.70;;
72235;SDS011;60146;52.498;13.462;2023-01-31T05:41:49;6.07;;;1.10;;
72235;SDS011;60146;52.498;13.462;2023-01-31T05:44:15;8.33;;;0.97;;
72235;SDS011;60146;52.498;13.462;2023-01-31T05:46:40;9.17;;;1.53;;
72235;SDS011;60146;52.498;13.462;2023-01-31T05:49:05;10.20;;;1.43;;
72235;SDS011;60146;52.498;13.462;2023-01-31T05:51:31;7.97;;;1.23;;
72235;SDS011;60146;52.498;13.462;2023-01-31T05:53:56;10.57;;;1.40;;
72235;SDS011;60146;52.498;13.462;2023-01-31T05:56:22;11.27;;;1.37;;
72235;SDS011;60146;52.498;13.462;2023-01-31T05:58:47;8.07;;;1.30;;
72235;SDS011;60146;52.498;13.462;2023-01-31T06:01:18;9.40;;;1.40;;
72235;SDS011;60146;52.498;13.462;2023-01-31T06:03:43;8.57;;;1.40;;
72235;SDS011;60146;52.498;13.462;2023-01-31T06:06:08;12.53;;;1.63;;
72235;SDS011;60146;52.498;13.462;2023-01-31T06:08:33;7.53;;;1.70;;
72235;SDS011;60146;52.498;13.462;2023-01-31T06:11:02;9.07;;;1.27;;
72235;SDS011;60146;52.498;13.462;2023-01-31T06:13:29;17.15;;;1.65;;
72235;SDS011;60146;52.498;13.462;2023-01-31T06:16:06;10.87;;;1.30;;
72235;SDS011;60146;52.498;13.462;2023-01-31T06:18:32;9.93;;;1.63;;
72235;SDS011;60146;52.498;13.462;2023-01-31T06:20:57;12.87;;;1.30;;
72235;SDS011;60146;52.498;13.462;2023-01-31T06:23:22;14.73;;;1.13;;
72235;SDS011;60146;52.498;13.462;2023-01-31T06:25:48;8.50;;;1.40;;
72235;SDS011;60146;52.498;13.462;2023-01-31T06:28:14;12.17;;;1.50;;
72235;SDS011;60146;52.498;13.462;2023-01-31T06:30:39;10.87;;;1.50;;
72235;SDS011;60146;52.498;13.462;2023-01-31T06:33:04;10.73;;;1.40;;
72235;SDS011;60146;52.498;13.462;2023-01-31T06:35:29;13.00;;;1.83;;
72235;SDS011;60146;52.498;13.462;2023-01-31T06:37:55;11.80;;;1.40;;
72235;SDS011;60146;52.498;13.462;2023-01-31T06:40:20;4.97;;;1.27;;
72235;SDS011;60146;52.498;13.462;2023-01-31T06:42:45;15.03;;;1.80;;
72235;SDS011;60146;52.498;13.462;2023-01-31T06:45:10;12.00;;;1.77;;
72235;SDS011;60146;52.498;13.462;2023-01-31T06:47:36;13.17;;;1.57;;
72235;SDS011;60146;52.498;13.462;2023-01-31T06:50:01;9.80;;;2.17;;
72235;SDS011;60146;52.498;13.462;2023-01-31T06:52:26;12.13;;;1.70;;
72235;SDS011;60146;52.498;13.462;2023-01-31T06:54:51;17.17;;;1.70;;
72235;SDS011;60146;52.498;13.462;2023-01-31T06:57:16;10.53;;;2.40;;
72235;SDS011;60146;52.498;13.462;2023-01-31T06:59:42;12.33;;;1.60;;
72235;SDS011;60146;52.498;13.462;2023-01-31T07:02:08;7.20;;;1.30;;
72235;SDS011;60146;52.498;13.462;2023-01-31T07:04:33;8.77;;;1.70;;
72235;SDS011;60146;52.498;13.462;2023-01-31T07:06:59;15.83;;;1.90;;
72235;SDS011;60146;52.498;13.462;2023-01-31T07:09:24;8.07;;;1.47;;
72235;SDS011;60146;52.498;13.462;2023-01-31T07:11:49;9.70;;;1.30;;
72235;SDS011;60146;52.498;13.462;2023-01-31T07:14:14;10.80;;;1.43;;
72235;SDS011;60146;52.498;13.462;2023-01-31T07:16:39;7.80;;;1.30;;
72235;SDS011;60146;52.498;13.462;2023-01-31T07:19:05;12.40;;;1.73;;
72235;SDS011;60146;52.498;13.462;2023-01-31T07:21:30;7.50;;;1.50;;
72235;SDS011;60146;52.498;13.462;2023-01-31T07:23:57;8.67;;;1.73;;
72235;SDS011;60146;52.498;13.462;2023-01-31T07:26:22;9.27;;;1.47;;
72235;SDS011;60146;52.498;13.462;2023-01-31T07:28:47;5.00;;;1.70;;
72235;SDS011;60146;52.498;13.462;2023-01-31T07:31:13;12.07;;;1.43;;
72235;SDS011;60146;52.498;13.462;2023-01-31T07:33:38;7.67;;;1.40;;
72235;SDS011;60146;52.498;13.462;2023-01-31T07:36:04;6.30;;;1.33;;
72235;SDS011;60146;52.498;13.462;2023-01-31T07:38:30;13.43;;;1.47;;
72235;SDS011;60146;52.498;13.462;2023-01-31T07:41:02;8.23;;;1.37;;
72235;SDS011;60146;52.498;13.462;2023-01-31T07:43:27;8.03;;;1.50;;
72235;SDS011;60146;52.498;13.462;2023-01-31T07:45:53;12.40;;;1.50;;
72235;SDS011;60146;52.498;13.462;2023-01-31T07:48:18;18.07;;;1.80;;
72235;SDS011;60146;52.498;13.462;2023-01-31T07:50:48;13.23;;;1.90;;
72235;SDS011;60146;52.498;13.462;2023-01-31T07:53:13;14.10;;;1.80;;
72235;SDS011;60146;52.498;13.462;2023-01-31T07:55:39;14.80;;;2.37;;
72235;SDS011;60146;52.498;13.462;2023-01-31T07:58:04;13.63;;;1.80;;
72235;SDS011;60146;52.498;13.462;2023-01-31T08:00:29;10.73;;;1.83;;
72235;SDS011;60146;52.498;13.462;2023-01-31T08:03:23;12.43;;;1.90;;
72235;SDS011;60146;52.498;13.462;2023-01-31T08:06:07;11.03;;;1.87;;
72235;SDS011;60146;52.498;13.462;2023-01-31T08:08:33;5.33;;;1.33;;
72235;SDS011;60146;52.498;13.462;2023-01-31T08:10:59;9.20;;;1.80;;
72235;SDS011;60146;52.498;13.462;2023-01-31T08:13:24;12.40;;;2.10;;
72235;SDS011;60146;52.498;13.462;2023-01-31T08:15:51;9.70;;;1.83;;
72235;SDS011;60146;52.498;13.462;2023-01-31T08:18:16;11.73;;;1.83;;
72235;SDS011;60146;52.498;13.462;2023-01-31T08:20:41;8.17;;;1.60;;
72235;SDS011;60146;52.498;13.462;2023-01-31T08:23:06;8.73;;;1.40;;
72235;SDS011;60146;52.498;13.462;2023-01-31T08:25:32;11.60;;;1.50;;
72235;SDS011;60146;52.498;13.462;2023-01-31T08:27:57;8.87;;;1.43;;
72235;SDS011;60146;52.498;13.462;2023-01-31T08:30:22;6.57;;;1.50;;
72235;SDS011;60146;52.498;13.462;2023-01-31T08:32:48;7.37;;;1.77;;
72235;SDS011;60146;52.498;13.462;2023-01-31T08:35:13;8.93;;;1.67;;
72235;SDS011;60146;52.498;13.462;2023-01-31T08:37:38;11.70;;;1.60;;
72235;SDS011;60146;52.498;13.462;2023-01-31T08:40:04;5.33;;;1.37;;
72235;SDS011;60146;52.498;13.462;2023-01-31T08:42:29;5.90;;;1.50;;
72235;SDS011;60146;52.498;13.462;2023-01-31T08:44:54;4.47;;;1.03;;
72235;SDS011;60146;52.498;13.462;2023-01-31T08:47:20;6.47;;;1.47;;
72235;SDS011;60146;52.498;13.462;2023-01-31T08:49:45;6.97;;;1.50;;
72235;SDS011;60146;52.498;13.462;2023-01-31T08:52:10;8.13;;;1.67;;
72235;SDS011;60146;52.498;13.462;2023-01-31T08:54:35;9.23;;;1.70;;
72235;SDS011;60146;52.498;13.462;2023-01-31T08:57:01;7.17;;;1.70;;
72235;SDS011;60146;52.498;13.462;2023-01-31T08:59:26;11.77;;;1.83;;
72235;SDS011;60146;52.498;13.462;2023-01-31T09:01:51;13.10;;;1.43;;
72235;SDS011;60146;52.498;13.462;2023-01-31T09:04:16;10.80;;;2.00;;
72235;SDS011;60146;52.498;13.462;2023-01-31T09:06:41;9.93;;;1.70;;
72235;SDS011;60146;52.498;13.462;2023-01-31T09:09:07;9.40;;;1.60;;
72235;SDS011;60146;52.498;13.462;2023-01-31T09:11:32;10.77;;;1.70;;
72235;SDS011;60146;52.498;13.462;2023-01-31T09:13:59;8.60;;;1.60;;
72235;SDS011;60146;52.498;13.462;2023-01-31T09:16:25;11.83;;;1.93;;
72235;SDS011;60146;52.498;13.462;2023-01-31T09:18:50;17.20;;;2.13;;
72235;SDS011;60146;52.498;13.462;2023-01-31T09:21:17;12.53;;;1.97;;
72235;SDS011;60146;52.498;13.462;2023-01-31T09:23:43;7.80;;;2.20;;
72235;SDS011;60146;52.498;13.462;2023-01-31T09:26:09;12.90;;;2.23;;
72235;SDS011;60146;52.498;13.462;2023-01-31T09:28:35;8.90;;;2.00;;
72235;SDS011;60146;52.498;13.462;2023-01-31T09:31:07;11.90;;;2.13;;
72235;SDS011;60146;52.498;13.462;2023-01-31T09:33:33;10.83;;;2.00;;
72235;SDS011;60146;52.498;13.462;2023-01-31T09:36:03;9.77;;;2.07;;
72235;SDS011;60146;52.498;13.462;2023-01-31T09:38:29;9.77;;;1.80;;
72235;SDS011;60146;52.498;13.462;2023-01-31T09:40:58;13.90;;;1.93;;
72235;SDS011;60146;52.498;13.462;2023-01-31T09:43:25;6.93;;;1.63;;
72235;SDS011;60146;52.498;13.462;2023-01-31T09:45:53;12.57;;;1.83;;
72235;SDS011;60146;52.498;13.462;2023-01-31T09:48:21;9.57;;;1.73;;
72235;SDS011;60146;52.498;13.462;2023-01-31T09:50:48;8.20;;;1.57;;
72235;SDS011;60146;52.498;13.462;2023-01-31T09:53:16;10.20;;;1.73;;
72235;SDS011;60146;52.498;13.462;2023-01-31T10:01:30;9.57;;;1.97;;
72235;SDS011;60146;52.498;13.462;2023-01-31T10:04:06;12.37;;;2.00;;
72235;SDS011;60146;52.498;13.462;2023-01-31T10:07:35;13.60;;;2.03;;
72235;SDS011;60146;52.498;13.462;2023-01-31T10:09:36;10.23;;;1.80;;
72235;SDS011;60146;52.498;13.462;2023-01-31T10:14:34;13.13;;;2.23;;
72235;SDS011;60146;52.498;13.462;2023-01-31T10:17:04;7.27;;;2.20;;
72235;SDS011;60146;52.498;13.462;2023-01-31T10:21:58;10.90;;;1.50;;
72235;SDS011;60146;52.498;13.462;2023-01-31T10:24:47;13.93;;;1.80;;
72235;SDS011;60146;52.498;13.462;2023-01-31T10:27:20;10.33;;;1.60;;
72235;SDS011;60146;52.498;13.462;2023-01-31T10:29:50;6.43;;;1.10;;
72235;SDS011;60146;52.498;13.462;2023-01-31T10:34:52;8.70;;;1.73;;
72235;SDS011;60146;52.498;13.462;2023-01-31T10:37:29;9.93;;;1.67;;
72235;SDS011;60146;52.498;13.462;2023-01-31T10:40:00;12.47;;;1.87;;
72235;SDS011;60146;52.498;13.462;2023-01-31T10:42:28;6.25;;;1.73;;
72235;SDS011;60146;52.498;13.462;2023-01-31T10:47:30;7.87;;;1.40;;
72235;SDS011;60146;52.498;13.462;2023-01-31T10:49:56;10.70;;;2.38;;
72235;SDS011;60146;52.498;13.462;2023-01-31T10:55:02;6.63;;;1.40;;
72235;SDS011;60146;52.498;13.462;2023-01-31T10:57:28;11.70;;;1.60;;
72235;SDS011;60146;52.498;13.462;2023-01-31T10:59:53;12.43;;;1.90;;
72235;SDS011;60146;52.498;13.462;2023-01-31T11:02:20;12.33;;;2.37;;
72235;SDS011;60146;52.498;13.462;2023-01-31T11:04:47;13.60;;;1.87;;
72235;SDS011;60146;52.498;13.462;2023-01-31T11:07:13;14.47;;;1.90;;
72235;SDS011;60146;52.498;13.462;2023-01-31T11:09:39;9.90;;;1.83;;
72235;SDS011;60146;52.498;13.462;2023-01-31T11:12:05;14.07;;;1.80;;
72235;SDS011;60146;52.498;13.462;2023-01-31T11:14:31;9.30;;;2.00;;
72235;SDS011;60146;52.498;13.462;2023-01-31T11:17:07;11.43;;;1.97;;
72235;SDS011;60146;52.498;13.462;2023-01-31T11:19:43;9.30;;;2.23;;
72235;SDS011;60146;52.498;13.462;2023-01-31T11:22:09;14.53;;;2.07;;
72235;SDS011;60146;52.498;13.462;2023-01-31T11:24:45;9.70;;;2.03;;
72235;SDS011;60146;52.498;13.462;2023-01-31T11:27:12;12.07;;;1.90;;
72235;SDS011;60146;52.498;13.462;2023-01-31T11:29:39;10.17;;;2.20;;
72235;SDS011;60146;52.498;13.462;2023-01-31T11:32:17;9.80;;;2.33;;
72235;SDS011;60146;52.498;13.462;2023-01-31T11:35:00;12.23;;;2.50;;
72235;SDS011;60146;52.498;13.462;2023-01-31T11:37:27;13.43;;;2.30;;
72235;SDS011;60146;52.498;13.462;2023-01-31T11:39:54;9.90;;;2.23;;
72235;SDS011;60146;52.498;13.462;2023-01-31T11:42:20;9.30;;;2.40;;
72235;SDS011;60146;52.498;13.462;2023-01-31T11:45:01;11.57;;;2.17;;
72235;SDS011;60146;52.498;13.462;2023-01-31T11:49:52;17.27;;;2.53;;
72235;SDS011;60146;52.498;13.462;2023-01-31T11:52:19;15.13;;;2.60;;
72235;SDS011;60146;52.498;13.462;2023-01-31T11:54:46;9.20;;;2.70;;
72235;SDS011;60146;52.498;13.462;2023-01-31T11:57:14;11.20;;;2.50;;
72235;SDS011;60146;52.498;13.462;2023-01-31T11:59:40;10.43;;;2.17;;
72235;SDS011;60146;52.498;13.462;2023-01-31T12:02:05;11.40;;;2.17;;
72235;SDS011;60146;52.498;13.462;2023-01-31T12:04:40;12.20;;;2.57;;
72235;SDS011;60146;52.498;13.462;2023-01-31T12:07:25;9.63;;;2.57;;
72235;SDS011;60146;52.498;13.462;2023-01-31T12:09:53;7.17;;;2.43;;
72235;SDS011;60146;52.498;13.462;2023-01-31T12:12:20;15.60;;;2.73;;
72235;SDS011;60146;52.498;13.462;2023-01-31T12:14:45;11.50;;;3.03;;
72235;SDS011;60146;52.498;13.462;2023-01-31T12:17:12;15.70;;;3.27;;
72235;SDS011;60146;52.498;13.462;2023-01-31T12:27:25;16.80;;;2.50;;
72235;SDS011;60146;52.498;13.462;2023-01-31T12:29:59;11.57;;;2.63;;
72235;SDS011;60146;52.498;13.462;2023-01-31T12:35:15;16.20;;;2.83;;
72235;SDS011;60146;52.498;13.462;2023-01-31T12:53:01;11.07;;;2.93;;
72235;SDS011;60146;52.498;13.462;2023-01-31T12:55:38;9.67;;;2.80;;
72235;SDS011;60146;52.498;13.462;2023-01-31T13:00:35;13.87;;;3.63;;
72235;SDS011;60146;52.498;13.462;2023-01-31T13:05:39;12.77;;;3.77;;
72235;SDS011;60146;52.498;13.462;2023-01-31T13:08:18;12.80;;;3.73;;
72235;SDS011;60146;52.498;13.462;2023-01-31T13:10:45;11.70;;;3.40;;
72235;SDS011;60146;52.498;13.462;2023-01-31T13:13:15;14.50;;;3.63;;
72235;SDS011;60146;52.498;13.462;2023-01-31T13:15:47;13.15;;;4.05;;
72235;SDS011;60146;52.498;13.462;2023-01-31T13:18:13;15.32;;;4.60;;
72235;SDS011;60146;52.498;13.462;2023-01-31T13:20:43;15.27;;;4.00;;
72235;SDS011;60146;52.498;13.462;2023-01-31T13:23:17;15.60;;;4.20;;
72235;SDS011;60146;52.498;13.462;2023-01-31T13:25:50;11.43;;;3.83;;
72235;SDS011;60146;52.498;13.462;2023-01-31T13:28:18;17.90;;;4.57;;
72235;SDS011;60146;52.498;13.462;2023-01-31T13:30:49;13.80;;;4.17;;
72235;SDS011;60146;52.498;13.462;2023-01-31T13:33:17;13.07;;;4.00;;
72235;SDS011;60146;52.498;13.462;2023-01-31T13:35:45;12.97;;;4.10;;
72235;SDS011;60146;52.498;13.462;2023-01-31T13:38:12;14.53;;;3.90;;
72235;SDS011;60146;52.498;13.462;2023-01-31T13:40:51;9.77;;;3.33;;
72235;SDS011;60146;52.498;13.462;2023-01-31T13:43:16;12.87;;;4.10;;
72235;SDS011;60146;52.498;13.462;2023-01-31T13:45:44;10.63;;;4.07;;
72235;SDS011;60146;52.498;13.462;2023-01-31T13:50:50;15.27;;;3.90;;
72235;SDS011;60146;52.498;13.462;2023-01-31T13:53:22;11.93;;;3.93;;
72235;SDS011;60146;52.498;13.462;2023-01-31T13:55:50;10.67;;;3.17;;
72235;SDS011;60146;52.498;13.462;2023-01-31T13:58:18;10.40;;;3.33;;
72235;SDS011;60146;52.498;13.462;2023-01-31T14:03:32;9.27;;;3.33;;
72235;SDS011;60146;52.498;13.462;2023-01-31T14:06:16;8.20;;;2.80;;
72235;SDS011;60146;52.498;13.462;2023-01-31T14:13:45;9.67;;;3.30;;
72235;SDS011;60146;52.498;13.462;2023-01-31T14:18:55;8.67;;;3.23;;
72235;SDS011;60146;52.498;13.462;2023-01-31T14:23:55;6.20;;;2.80;;
72235;SDS011;60146;52.498;13.462;2023-01-31T14:29:08;6.20;;;3.00;;
72235;SDS011;60146;52.498;13.462;2023-01-31T14:31:34;5.33;;;2.40;;
72235;SDS011;60146;52.498;13.462;2023-01-31T14:33:59;7.03;;;2.90;;
72235;SDS011;60146;52.498;13.462;2023-01-31T14:57:19;11.90;;;3.97;;
72235;SDS011;60146;52.498;13.462;2023-01-31T15:00:03;7.47;;;3.67;;
72235;SDS011;60146;52.498;13.462;2023-01-31T15:04:55;6.37;;;3.13;;
72235;SDS011;60146;52.498;13.462;2023-01-31T15:07:21;7.40;;;3.30;;
72235;SDS011;60146;52.498;13.462;2023-01-31T15:09:46;10.17;;;3.60;;
72235;SDS011;60146;52.498;13.462;2023-01-31T15:14:58;7.37;;;3.10;;
72235;SDS011;60146;52.498;13.462;2023-01-31T15:17:27;6.30;;;3.30;;
72235;SDS011;60146;52.498;13.462;2023-01-31T15:19:56;7.77;;;3.47;;
72235;SDS011;60146;52.498;13.462;2023-01-31T15:22:23;8.43;;;3.70;;
72235;SDS011;60146;52.498;13.462;2023-01-31T15:24:50;8.90;;;3.97;;
72235;SDS011;60146;52.498;13.462;2023-01-31T15:27:22;7.00;;;3.57;;
72235;SDS011;60146;52.498;13.462;2023-01-31T15:32:21;11.17;;;4.67;;
72235;SDS011;60146;52.498;13.462;2023-01-31T15:34:58;8.07;;;4.17;;
72235;SDS011;60146;52.498;13.462;2023-01-31T15:37:28;8.37;;;4.07;;
72235;SDS011;60146;52.498;13.462;2023-01-31T15:39:57;8.45;;;3.72;;
72235;SDS011;60146;52.498;13.462;2023-01-31T15:42:27;7.60;;;3.63;;
72235;SDS011;60146;52.498;13.462;2023-01-31T15:47:37;8.90;;;3.63;;
72235;SDS011;60146;52.498;13.462;2023-01-31T15:50:11;8.73;;;4.43;;
72235;SDS011;60146;52.498;13.462;2023-01-31T15:52:37;11.03;;;4.33;;
72235;SDS011;60146;52.498;13.462;2023-01-31T15:55:03;10.83;;;5.03;;
72235;SDS011;60146;52.498;13.462;2023-01-31T15:57:34;11.90;;;3.90;;
72235;SDS011;60146;52.498;13.462;2023-01-31T16:00:01;10.07;;;4.03;;
72235;SDS011;60146;52.498;13.462;2023-01-31T16:02:28;10.37;;;4.27;;
72235;SDS011;60146;52.498;13.462;2023-01-31T16:04:54;7.97;;;3.97;;
72235;SDS011;60146;52.498;13.462;2023-01-31T16:07:20;7.50;;;3.50;;
72235;SDS011;60146;52.498;13.462;2023-01-31T16:09:47;9.60;;;4.53;;
72235;SDS011;60146;52.498;13.462;2023-01-31T16:12:12;9.37;;;4.70;;
72235;SDS011;60146;52.498;13.462;2023-01-31T16:14:38;8.43;;;4.43;;
72235;SDS011;60146;52.498;13.462;2023-01-31T16:17:04;7.67;;;4.20;;
72235;SDS011;60146;52.498;13.462;2023-01-31T16:19:31;7.37;;;3.73;;
72235;SDS011;60146;52.498;13.462;2023-01-31T16:21:57;8.33;;;3.97;;
72235;SDS011;60146;52.498;13.462;2023-01-31T16:24:23;10.83;;;4.30;;
72235;SDS011;60146;52.498;13.462;2023-01-31T16:29:20;7.83;;;4.20;;
72235;SDS011;60146;52.498;13.462;2023-01-31T16:31:50;11.77;;;4.73;;
72235;SDS011;60146;52.498;13.462;2023-01-31T16:34:19;10.60;;;4.73;;
72235;SDS011;60146;52.498;13.462;2023-01-31T16:39:21;9.20;;;4.23;;
72235;SDS011;60146;52.498;13.462;2023-01-31T16:41:52;7.97;;;4.30;;
72235;SDS011;60146;52.498;13.462;2023-01-31T16:44:19;9.87;;;4.60;;
72235;SDS011;60146;52.498;13.462;2023-01-31T16:46:45;10.17;;;5.00;;
72235;SDS011;60146;52.498;13.462;2023-01-31T16:51:43;9.03;;;4.27;;
72235;SDS011;60146;52.498;13.462;2023-01-31T16:54:24;11.27;;;5.20;;
72235;SDS011;60146;52.498;13.462;2023-01-31T17:02:10;8.30;;;4.33;;